createdAt,value
2019-02-20T00:00:05.747Z,47.70
2019-02-20T00:01:14.985Z,45.70
2019-02-20T00:02:19.046Z,41.63
2019-02-20T00:03:23.534Z,40.88
2019-02-20T00:04:27.794Z,40.92
2019-02-20T00:05:32.339Z,41.15
2019-02-20T00:06:36.271Z,43.90
2019-02-20T00:07:40.276Z,43.10
2019-02-20T00:08:44.793Z,37.98
2019-02-20T00:09:48.646Z,38.15
2019-02-20T00:10:52.763Z,38.15
2019-02-20T00:11:56.693Z,38.08
2019-02-20T00:13:00.991Z,40.10
2019-02-20T00:14:05.016Z,37.08
2019-02-20T00:15:09.707Z,35.05
2019-02-20T00:16:13.735Z,35.88
2019-02-20T00:17:18.220Z,36.75
2019-02-20T00:18:22.838Z,34.83
2019-02-20T00:19:26.851Z,37.17
2019-02-20T00:20:30.814Z,37.60
2019-02-20T00:21:35.052Z,38.00
2019-02-20T00:22:40.472Z,39.83
2019-02-20T00:23:44.572Z,38.80
2019-02-20T00:24:48.753Z,37.00
2019-02-20T00:25:52.641Z,35.95
2019-02-20T00:26:56.897Z,37.38
2019-02-20T00:28:01.038Z,34.18
2019-02-20T00:29:05.303Z,33.40
2019-02-20T00:30:09.616Z,34.38
2019-02-20T00:31:13.892Z,30.60
2019-02-20T00:32:18.228Z,32.78
2019-02-20T00:33:22.538Z,30.62
2019-02-20T00:34:26.759Z,33.38
2019-02-20T00:35:31.054Z,30.17
2019-02-20T00:36:35.448Z,33.92
2019-02-20T00:37:39.668Z,31.15
2019-02-20T00:38:43.986Z,28.60
2019-02-20T00:39:48.283Z,33.60
2019-02-20T00:40:52.314Z,33.23
2019-02-20T00:41:56.334Z,31.17
2019-02-20T00:43:00.199Z,34.67
2019-02-20T00:44:19.495Z,37.13
2019-02-20T00:45:42.340Z,35.45
2019-02-20T00:46:54.215Z,33.90
2019-02-20T00:48:17.135Z,30.25
2019-02-20T00:49:42.714Z,35.23
2019-02-20T00:50:47.135Z,31.80
2019-02-20T00:52:10.282Z,29.90
2019-02-20T00:53:22.210Z,37.28
2019-02-20T00:54:26.475Z,29.12
2019-02-20T00:55:30.783Z,32.28
2019-02-20T00:56:34.847Z,40.58
2019-02-20T00:57:39.014Z,39.88
2019-02-20T00:58:43.016Z,40.25
2019-02-20T00:59:46.947Z,32.95
2019-02-20T01:00:50.882Z,36.98
2019-02-20T01:01:54.826Z,37.17
2019-02-20T01:02:59.099Z,32.93
2019-02-20T01:04:03.029Z,32.65
2019-02-20T01:05:07.298Z,36.95
2019-02-20T01:06:11.318Z,77.17
2019-02-20T01:07:15.614Z,54.58
2019-02-20T01:08:19.545Z,43.80
2019-02-20T01:09:23.799Z,37.80
2019-02-20T01:10:27.972Z,37.88
2019-02-20T01:11:32.409Z,32.20
2019-02-20T01:12:36.666Z,33.92
2019-02-20T01:13:40.666Z,29.80
2019-02-20T01:14:44.855Z,30.57
2019-02-20T01:15:49.205Z,29.85
2019-02-20T01:16:53.549Z,29.70
2019-02-20T01:17:57.560Z,26.60
2019-02-20T01:19:01.578Z,27.00
2019-02-20T01:20:06.397Z,26.60
2019-02-20T01:21:10.352Z,23.62
2019-02-20T01:22:14.575Z,25.77
2019-02-20T01:23:18.608Z,28.17
2019-02-20T01:24:22.866Z,23.85
2019-02-20T01:25:26.792Z,25.08
2019-02-20T01:26:30.979Z,32.33
2019-02-20T01:27:35.308Z,26.40
2019-02-20T01:28:39.251Z,27.52
2019-02-20T01:29:43.573Z,28.50
2019-02-20T01:30:47.612Z,31.45
2019-02-20T01:31:51.929Z,24.92
2019-02-20T01:32:55.966Z,28.70
2019-02-20T01:34:00.540Z,25.15
2019-02-20T01:35:04.953Z,27.52
2019-02-20T01:36:09.173Z,27.70
2019-02-20T01:37:13.466Z,28.75
2019-02-20T01:38:17.451Z,27.85
2019-02-20T01:39:21.532Z,34.67
2019-02-20T01:40:25.576Z,35.20
2019-02-20T01:41:29.550Z,38.88
2019-02-20T01:42:33.532Z,32.10
2019-02-20T01:43:37.600Z,30.52
2019-02-20T01:44:41.632Z,34.48
2019-02-20T01:45:46.087Z,32.80
2019-02-20T01:46:53.496Z,43.83
2019-02-20T01:47:57.897Z,34.18
2019-02-20T01:49:01.891Z,33.58
2019-02-20T01:50:06.158Z,34.70
2019-02-20T01:51:10.203Z,30.95
2019-02-20T01:52:14.243Z,34.00
2019-02-20T01:53:18.311Z,35.40
2019-02-20T01:54:22.356Z,38.33
2019-02-20T01:55:26.721Z,35.00
2019-02-20T01:56:30.789Z,33.40
2019-02-20T01:57:34.755Z,26.40
2019-02-20T01:58:39.143Z,27.58
2019-02-20T01:59:43.228Z,27.70
2019-02-20T02:00:47.731Z,27.93
2019-02-20T02:01:51.708Z,32.67
2019-02-20T02:02:55.758Z,34.80
2019-02-20T02:04:00.776Z,30.72
2019-02-20T02:05:05.269Z,25.88
2019-02-20T02:06:09.313Z,41.42
2019-02-20T02:07:13.352Z,38.05
2019-02-20T02:08:17.696Z,32.23
2019-02-20T02:09:21.755Z,31.07
2019-02-20T02:10:25.806Z,31.23
2019-02-20T02:11:30.218Z,34.80
2019-02-20T02:12:34.263Z,34.65
2019-02-20T02:13:38.610Z,28.62
2019-02-20T02:14:42.649Z,31.77
2019-02-20T02:15:46.610Z,31.35
2019-02-20T02:16:51.011Z,28.02
2019-02-20T02:17:55.053Z,25.97
2019-02-20T02:18:59.045Z,25.90
2019-02-20T02:20:03.158Z,30.48
2019-02-20T02:21:07.193Z,34.85
2019-02-20T02:22:11.485Z,33.92
2019-02-20T02:23:19.813Z,30.62
2019-02-20T02:24:21.299Z,27.93
2019-02-20T02:25:25.324Z,30.17
2019-02-20T02:26:29.378Z,27.07
2019-02-20T02:27:33.398Z,26.25
2019-02-20T02:28:37.803Z,24.30
2019-02-20T02:29:41.842Z,20.92
2019-02-20T02:30:46.192Z,24.23
2019-02-20T02:31:50.859Z,21.70
2019-02-20T02:32:54.943Z,20.30
2019-02-20T02:33:58.983Z,20.68
2019-02-20T02:35:03.059Z,23.73
2019-02-20T02:36:07.403Z,22.10
2019-02-20T02:37:11.676Z,22.52
2019-02-20T02:38:15.720Z,21.48
2019-02-20T02:39:19.807Z,27.77
2019-02-20T02:40:23.777Z,22.87
2019-02-20T02:41:28.342Z,24.27
2019-02-20T02:42:32.575Z,23.55
2019-02-20T02:43:36.618Z,26.95
2019-02-20T02:44:40.719Z,25.43
2019-02-20T02:45:44.927Z,25.32
2019-02-20T02:46:48.963Z,25.00
2019-02-20T02:47:52.893Z,27.25
2019-02-20T02:48:56.892Z,23.42
2019-02-20T02:50:01.420Z,28.90
2019-02-20T02:51:05.362Z,24.12
2019-02-20T02:52:09.547Z,21.52
2019-02-20T02:53:13.489Z,21.80
2019-02-20T02:54:17.720Z,20.90
2019-02-20T02:55:21.739Z,21.80
2019-02-20T02:56:25.715Z,44.80
2019-02-20T02:57:29.653Z,73.00
2019-02-20T02:58:33.828Z,195.87
2019-02-20T02:59:37.790Z,108.32
2019-02-20T03:00:41.762Z,213.82
2019-02-20T03:01:45.758Z,176.80
2019-02-20T03:02:49.700Z,228.92
2019-02-20T03:03:53.881Z,83.85
2019-02-20T03:04:57.925Z,126.97
2019-02-20T03:06:02.146Z,330.02
2019-02-20T03:07:06.157Z,82.15
2019-02-20T03:08:10.173Z,93.87
2019-02-20T03:09:14.545Z,221.93
2019-02-20T03:10:18.575Z,129.60
2019-02-20T03:11:22.856Z,103.40
2019-02-20T03:12:27.241Z,153.15
2019-02-20T03:13:31.463Z,89.92
2019-02-20T03:14:36.097Z,128.27
2019-02-20T03:15:40.128Z,163.00
2019-02-20T03:16:44.559Z,105.83
2019-02-20T03:17:48.916Z,120.10
2019-02-20T03:18:53.223Z,95.87
2019-02-20T03:19:57.839Z,98.00
2019-02-20T03:21:02.233Z,88.25
2019-02-20T03:22:06.251Z,98.97
2019-02-20T03:23:10.455Z,84.13
2019-02-20T03:24:14.632Z,88.12
2019-02-20T03:25:18.555Z,92.35
2019-02-20T03:26:22.503Z,128.30
2019-02-20T03:27:26.751Z,119.45
2019-02-20T03:28:31.250Z,89.75
2019-02-20T03:29:35.179Z,122.10
2019-02-20T03:30:39.657Z,81.32
2019-02-20T03:31:43.934Z,73.60
2019-02-20T03:32:48.107Z,83.55
2019-02-20T03:33:52.268Z,102.10
2019-02-20T03:34:56.513Z,57.03
2019-02-20T03:36:00.459Z,90.72
2019-02-20T03:37:04.704Z,81.60
2019-02-20T03:38:08.639Z,100.22
2019-02-20T03:39:12.664Z,155.30
2019-02-20T03:40:16.886Z,100.78
2019-02-20T03:41:20.917Z,63.92
2019-02-20T03:42:24.913Z,225.80
2019-02-20T03:43:29.175Z,100.55
2019-02-20T03:44:33.433Z,131.95
2019-02-20T03:45:37.352Z,125.95
2019-02-20T03:46:41.615Z,137.03
2019-02-20T03:47:45.714Z,135.03
2019-02-20T03:48:49.653Z,147.60
2019-02-20T03:49:53.917Z,250.38
2019-02-20T03:50:57.926Z,206.38
2019-02-20T03:52:02.124Z,182.75
2019-02-20T03:53:06.227Z,90.28
2019-02-20T03:54:11.001Z,198.60
2019-02-20T03:55:15.106Z,136.50
2019-02-20T03:56:19.275Z,142.72
2019-02-20T03:57:23.228Z,251.80
2019-02-20T03:58:27.240Z,130.55
2019-02-20T03:59:31.503Z,261.20
2019-02-20T04:00:35.545Z,107.87
2019-02-20T04:01:39.813Z,138.45
2019-02-20T04:02:43.753Z,190.15
2019-02-20T04:03:48.168Z,152.30
2019-02-20T04:04:52.116Z,115.22
2019-02-20T04:05:56.867Z,106.80
2019-02-20T04:07:00.873Z,173.70
2019-02-20T04:08:04.970Z,105.60
2019-02-20T04:09:09.258Z,120.82
2019-02-20T04:10:13.280Z,159.05
2019-02-20T04:11:17.222Z,183.70
2019-02-20T04:12:21.247Z,101.62
2019-02-20T04:13:25.184Z,116.97
2019-02-20T04:14:29.667Z,171.02
2019-02-20T04:15:33.974Z,85.72
2019-02-20T04:16:38.182Z,103.17
2019-02-20T04:17:42.693Z,149.90
2019-02-20T04:18:47.212Z,205.18
2019-02-20T04:19:51.229Z,230.35
2019-02-20T04:20:55.272Z,147.55
2019-02-20T04:21:59.526Z,132.45
2019-02-20T04:23:03.889Z,138.22
2019-02-20T04:24:07.904Z,109.17
2019-02-20T04:25:11.844Z,126.55
2019-02-20T04:26:15.852Z,176.07
2019-02-20T04:27:19.735Z,160.75
2019-02-20T04:28:23.936Z,112.97
2019-02-20T04:29:27.924Z,84.83
2019-02-20T04:30:32.242Z,144.95
2019-02-20T04:31:36.549Z,181.25
2019-02-20T04:32:40.503Z,119.82
2019-02-20T04:33:44.775Z,115.90
2019-02-20T04:34:48.966Z,160.52
2019-02-20T04:35:52.891Z,197.90
2019-02-20T04:36:57.389Z,129.30
2019-02-20T04:38:01.673Z,100.60
2019-02-20T04:39:06.608Z,253.27
2019-02-20T04:40:10.639Z,167.72
2019-02-20T04:41:14.582Z,134.70
2019-02-20T04:42:18.659Z,237.95
2019-02-20T04:43:22.859Z,227.72
2019-02-20T04:44:27.115Z,240.30
2019-02-20T04:45:31.304Z,265.60
2019-02-20T04:46:35.403Z,205.20
2019-02-20T04:47:39.849Z,125.90
2019-02-20T04:48:43.775Z,87.10
2019-02-20T04:49:47.975Z,103.22
2019-02-20T04:50:51.986Z,121.75
2019-02-20T04:51:56.233Z,403.92
2019-02-20T04:53:00.176Z,158.22
2019-02-20T04:54:12.927Z,286.07
2019-02-20T04:55:10.175Z,137.75
2019-02-20T04:56:14.326Z,99.00
2019-02-20T04:57:18.923Z,173.10
2019-02-20T04:58:23.523Z,185.50
2019-02-20T04:59:27.804Z,160.80
2019-02-20T05:00:32.159Z,328.50
2019-02-20T05:01:36.461Z,274.15
2019-02-20T05:02:40.487Z,202.68
2019-02-20T05:03:44.681Z,453.95
2019-02-20T05:04:48.692Z,277.80
2019-02-20T05:05:53.082Z,359.75
2019-02-20T05:06:57.068Z,302.07
2019-02-20T05:08:01.086Z,324.45
2019-02-20T05:09:06.340Z,419.85
2019-02-20T05:10:11.338Z,316.75
2019-02-20T05:11:15.280Z,372.63
2019-02-20T05:12:19.220Z,357.80
2019-02-20T05:13:23.171Z,338.05
2019-02-20T05:14:27.416Z,596.85
2019-02-20T05:15:31.519Z,457.52
2019-02-20T05:16:35.773Z,182.55
2019-02-20T05:17:39.872Z,185.35
2019-02-20T05:18:44.118Z,236.32
2019-02-20T05:19:48.433Z,285.02
2019-02-20T05:20:52.684Z,236.90
2019-02-20T05:21:56.542Z,232.05
2019-02-20T05:23:00.564Z,202.25
2019-02-20T05:24:04.728Z,197.25
2019-02-20T05:25:08.810Z,189.67
2019-02-20T05:26:12.826Z,329.27
2019-02-20T05:27:17.093Z,213.00
2019-02-20T05:28:21.400Z,217.47
2019-02-20T05:29:26.014Z,227.45
2019-02-20T05:30:29.965Z,355.67
2019-02-20T05:31:34.284Z,275.60
2019-02-20T05:32:38.239Z,315.10
2019-02-20T05:33:42.258Z,243.55
2019-02-20T05:34:46.125Z,249.60
2019-02-20T05:35:50.063Z,115.08
2019-02-20T05:36:54.013Z,186.32
2019-02-20T05:37:58.325Z,143.28
2019-02-20T05:39:02.440Z,218.02
2019-02-20T05:40:06.844Z,334.27
2019-02-20T05:41:10.861Z,173.70
2019-02-20T05:42:15.457Z,243.97
2019-02-20T05:43:19.727Z,169.85
2019-02-20T05:44:23.680Z,298.20
2019-02-20T05:45:27.623Z,254.87
2019-02-20T05:46:31.563Z,308.70
2019-02-20T05:47:35.997Z,108.75
2019-02-20T05:48:40.279Z,237.32
2019-02-20T05:49:44.239Z,201.02
2019-02-20T05:50:49.000Z,175.97
2019-02-20T05:51:52.979Z,245.70
2019-02-20T05:52:57.369Z,167.80
2019-02-20T05:54:01.301Z,162.07
2019-02-20T05:55:05.660Z,247.12
2019-02-20T05:56:10.088Z,161.35
2019-02-20T05:57:14.283Z,265.92
2019-02-20T05:58:18.148Z,228.45
2019-02-20T05:59:22.331Z,217.22
2019-02-20T06:00:26.275Z,268.20
2019-02-20T06:01:30.749Z,165.32
2019-02-20T06:02:35.139Z,155.20
2019-02-20T06:03:39.095Z,194.93
2019-02-20T06:04:43.352Z,213.50
2019-02-20T06:05:47.386Z,216.82
2019-02-20T06:06:53.171Z,123.92
2019-02-20T06:07:57.061Z,137.97
2019-02-20T06:09:01.107Z,293.33
2019-02-20T06:10:08.933Z,186.40
2019-02-20T06:11:15.177Z,211.55
2019-02-20T06:12:19.567Z,148.80
2019-02-20T06:13:23.837Z,303.12
2019-02-20T06:14:27.842Z,148.05
2019-02-20T06:15:31.915Z,199.57
2019-02-20T06:16:35.987Z,131.45
2019-02-20T06:17:40.039Z,147.37
2019-02-20T06:18:44.334Z,72.87
2019-02-20T06:19:48.854Z,125.33
2019-02-20T06:20:53.034Z,107.55
2019-02-20T06:21:57.034Z,98.30
2019-02-20T06:23:00.962Z,151.97
2019-02-20T06:24:05.234Z,107.78
2019-02-20T06:25:09.269Z,123.97
2019-02-20T06:26:13.504Z,97.47
2019-02-20T06:27:17.845Z,86.00
2019-02-20T06:28:22.051Z,116.60
2019-02-20T06:29:26.299Z,106.83
2019-02-20T06:30:30.314Z,125.45
2019-02-20T06:31:34.823Z,77.78
2019-02-20T06:32:38.826Z,92.17
2019-02-20T06:33:43.096Z,83.00
2019-02-20T06:34:47.096Z,172.32
2019-02-20T06:35:51.590Z,99.17
2019-02-20T06:36:55.886Z,66.67
2019-02-20T06:38:00.071Z,92.60
2019-02-20T06:39:05.170Z,140.05
2019-02-20T06:40:09.645Z,134.43
2019-02-20T06:41:14.245Z,158.07
2019-02-20T06:42:18.178Z,91.25
2019-02-20T06:43:22.581Z,162.40
2019-02-20T06:44:27.301Z,77.55
2019-02-20T06:45:31.310Z,158.82
2019-02-20T06:46:35.511Z,93.35
2019-02-20T06:47:39.707Z,75.37
2019-02-20T06:48:43.991Z,63.60
2019-02-20T06:49:48.010Z,127.47
2019-02-20T06:50:52.031Z,113.35
2019-02-20T06:51:56.510Z,77.72
2019-02-20T06:53:01.020Z,137.40
2019-02-20T06:54:05.040Z,83.65
2019-02-20T06:55:09.661Z,153.75
2019-02-20T06:56:13.967Z,143.87
2019-02-20T06:57:18.256Z,174.85
2019-02-20T06:58:22.479Z,201.02
2019-02-20T06:59:26.622Z,215.52
2019-02-20T07:00:30.644Z,275.85
2019-02-20T07:01:34.943Z,145.60
2019-02-20T07:02:39.075Z,149.60
2019-02-20T07:03:43.288Z,121.57
2019-02-20T07:05:23.052Z,136.12
2019-02-20T07:06:37.809Z,125.92
2019-02-20T07:08:17.635Z,119.62
2019-02-20T07:10:07.608Z,102.80
2019-02-20T07:11:38.793Z,80.40
2019-02-20T07:13:09.271Z,78.52
2019-02-20T07:14:32.406Z,164.40
2019-02-20T07:16:45.524Z,97.15
2019-02-20T07:18:29.010Z,74.92
2019-02-20T07:19:47.961Z,75.42
2019-02-20T07:21:15.623Z,66.70
2019-02-20T07:23:12.915Z,89.03
2019-02-20T07:24:47.736Z,72.20
2019-02-20T07:26:26.967Z,122.07
2019-02-20T07:28:14.758Z,110.70
2019-02-20T07:29:43.314Z,81.02
2019-02-20T07:30:47.177Z,69.22
2019-02-20T07:31:51.387Z,103.67
2019-02-20T07:32:55.891Z,61.00
2019-02-20T07:34:00.183Z,115.40
2019-02-20T07:35:04.405Z,89.17
2019-02-20T07:36:08.412Z,114.17
2019-02-20T07:37:12.596Z,78.37
2019-02-20T07:38:16.802Z,127.10
2019-02-20T07:39:20.983Z,139.52
2019-02-20T07:40:24.996Z,102.38
2019-02-20T07:41:29.169Z,123.53
2019-02-20T07:42:33.295Z,98.03
2019-02-20T07:43:37.483Z,112.42
2019-02-20T07:44:41.684Z,145.77
2019-02-20T07:45:45.685Z,73.90
2019-02-20T07:46:49.796Z,109.03
2019-02-20T07:47:54.352Z,131.67
2019-02-20T07:48:58.367Z,80.90
2019-02-20T07:50:02.886Z,70.62
2019-02-20T07:51:06.991Z,136.20
2019-02-20T07:52:11.392Z,72.75
2019-02-20T07:53:15.589Z,136.40
2019-02-20T07:54:19.790Z,74.85
2019-02-20T07:55:24.057Z,86.55
2019-02-20T07:56:28.316Z,96.47
2019-02-20T07:57:32.266Z,73.50
2019-02-20T07:58:36.515Z,55.55
2019-02-20T07:59:40.579Z,64.92
2019-02-20T08:00:44.518Z,37.03
2019-02-20T08:01:48.710Z,46.45
2019-02-20T08:02:52.984Z,44.15
2019-02-20T08:03:56.928Z,34.08
2019-02-20T08:05:01.243Z,43.23
2019-02-20T08:06:05.583Z,33.83
2019-02-20T08:07:09.890Z,36.88
2019-02-20T08:08:14.157Z,32.63
2019-02-20T08:09:18.477Z,28.23
2019-02-20T08:10:22.483Z,22.62
2019-02-20T08:11:26.797Z,19.73
2019-02-20T08:12:31.059Z,23.65
2019-02-20T08:13:39.241Z,20.68
2019-02-20T08:14:40.911Z,23.65
2019-02-20T08:15:45.423Z,25.40
2019-02-20T08:16:52.240Z,21.37
2019-02-20T08:17:55.448Z,20.68
2019-02-20T08:18:59.626Z,20.30
2019-02-20T08:20:03.731Z,21.35
2019-02-20T08:21:07.674Z,19.92
2019-02-20T08:22:11.608Z,51.98
2019-02-20T08:23:16.132Z,33.88
2019-02-20T08:24:20.299Z,43.38
2019-02-20T08:25:24.562Z,31.33
2019-02-20T08:26:28.493Z,39.65
2019-02-20T08:27:32.749Z,27.05
2019-02-20T08:28:36.695Z,25.10
2019-02-20T08:29:40.701Z,25.02
2019-02-20T08:30:44.872Z,23.87
2019-02-20T08:31:49.141Z,22.85
2019-02-20T08:32:53.085Z,24.67
2019-02-20T08:33:57.297Z,24.23
2019-02-20T08:35:01.409Z,25.57
2019-02-20T08:36:05.709Z,21.85
2019-02-20T08:37:09.986Z,23.22
2019-02-20T08:38:13.943Z,22.75
2019-02-20T08:39:18.085Z,19.70
2019-02-20T08:40:22.127Z,20.65
2019-02-20T08:41:26.059Z,24.47
2019-02-20T08:42:30.167Z,26.10
2019-02-20T08:43:34.037Z,23.95
2019-02-20T08:44:38.026Z,26.12
2019-02-20T08:45:41.960Z,31.73
2019-02-20T08:46:45.961Z,25.70
2019-02-20T08:47:50.181Z,24.57
2019-02-20T08:48:54.370Z,24.67
2019-02-20T08:49:58.635Z,25.62
2019-02-20T08:51:03.095Z,23.92
2019-02-20T08:52:07.918Z,24.63
2019-02-20T08:53:12.308Z,26.57
2019-02-20T08:54:16.486Z,24.60
2019-02-20T08:55:21.566Z,25.25
2019-02-20T08:56:26.054Z,25.62
2019-02-20T08:57:30.295Z,30.45
2019-02-20T08:58:34.309Z,25.43
2019-02-20T08:59:38.335Z,30.10
2019-02-20T09:00:42.592Z,22.77
2019-02-20T09:01:46.514Z,24.57
2019-02-20T09:02:50.475Z,30.57
2019-02-20T09:03:54.423Z,24.95
2019-02-20T09:04:58.606Z,28.75
2019-02-20T09:06:02.595Z,26.62
2019-02-20T09:07:07.048Z,26.50
2019-02-20T09:08:11.057Z,26.20
2019-02-20T09:09:15.051Z,27.80
2019-02-20T09:10:19.161Z,29.42
2019-02-20T09:11:23.532Z,24.72
2019-02-20T09:12:27.471Z,28.57
2019-02-20T09:13:31.385Z,28.45
2019-02-20T09:14:35.250Z,27.07
2019-02-20T09:15:39.116Z,24.37
2019-02-20T09:16:43.427Z,30.15
2019-02-20T09:17:47.287Z,37.15
2019-02-20T09:18:51.490Z,38.78
2019-02-20T09:19:55.500Z,31.30
2019-02-20T09:20:59.328Z,53.70
2019-02-20T09:22:03.316Z,73.80
2019-02-20T09:23:07.322Z,66.10
2019-02-20T09:24:11.736Z,52.05
2019-02-20T09:25:19.837Z,47.27
2019-02-20T09:26:22.299Z,50.43
2019-02-20T09:27:26.438Z,38.48
2019-02-20T09:28:31.019Z,38.20
2019-02-20T09:29:34.963Z,58.60
2019-02-20T09:30:38.898Z,45.08
2019-02-20T09:31:43.364Z,34.45
2019-02-20T09:32:47.554Z,48.90
2019-02-20T09:33:51.742Z,51.68
2019-02-20T09:34:55.943Z,46.73
2019-02-20T09:36:00.251Z,34.27
2019-02-20T09:37:04.460Z,28.52
2019-02-20T09:38:10.487Z,24.43
2019-02-20T09:39:46.071Z,28.25
2019-02-20T09:40:50.253Z,22.27
2019-02-20T09:41:54.611Z,28.70
2019-02-20T09:42:58.539Z,26.65
2019-02-20T09:44:02.544Z,22.52
2019-02-20T09:45:06.753Z,23.10
2019-02-20T09:46:10.653Z,24.57
2019-02-20T09:47:14.900Z,19.42
2019-02-20T09:48:23.911Z,22.35
2019-02-20T09:49:28.230Z,28.17
2019-02-20T09:50:32.464Z,23.30
2019-02-20T09:51:36.632Z,24.43
2019-02-20T09:52:40.948Z,25.97
2019-02-20T09:53:45.240Z,25.90
2019-02-20T09:54:49.508Z,26.90
2019-02-20T09:55:53.510Z,30.35
2019-02-20T09:56:57.698Z,23.92
2019-02-20T09:58:02.203Z,23.60
2019-02-20T09:59:06.206Z,25.10
2019-02-20T10:00:12.780Z,23.30
2019-02-20T10:01:17.056Z,22.27
2019-02-20T10:02:21.060Z,22.58
2019-02-20T10:03:25.232Z,26.82
2019-02-20T10:04:29.418Z,26.37
2019-02-20T10:05:33.438Z,23.62
2019-02-20T10:06:37.714Z,28.80
2019-02-20T10:07:41.741Z,24.82
2019-02-20T10:08:45.889Z,25.52
2019-02-20T10:09:49.822Z,30.68
2019-02-20T10:10:53.764Z,94.05
2019-02-20T10:11:57.942Z,37.10
2019-02-20T10:13:01.798Z,38.53
2019-02-20T10:14:06.046Z,35.23
2019-02-20T10:15:11.207Z,35.25
2019-02-20T10:16:15.370Z,29.82
2019-02-20T10:17:20.107Z,28.98
2019-02-20T10:18:24.037Z,29.80
2019-02-20T10:19:28.043Z,27.45
2019-02-20T10:20:32.497Z,43.92
2019-02-20T10:21:36.494Z,34.53
2019-02-20T10:22:40.495Z,41.85
2019-02-20T10:23:45.302Z,32.67
2019-02-20T10:24:49.159Z,19.60
2019-02-20T10:26:00.547Z,17.77
2019-02-20T10:27:00.873Z,24.70
2019-02-20T10:28:05.015Z,19.73
2019-02-20T10:29:08.966Z,25.45
2019-02-20T10:30:15.102Z,24.87
2019-02-20T10:31:19.125Z,24.02
2019-02-20T10:32:23.118Z,21.77
2019-02-20T10:33:26.989Z,30.32
2019-02-20T10:34:31.261Z,20.48
2019-02-20T10:35:35.114Z,29.90
2019-02-20T10:36:39.705Z,28.12
2019-02-20T10:37:43.746Z,22.20
2019-02-20T10:38:47.621Z,25.30
2019-02-20T10:39:51.906Z,24.85
2019-02-20T10:40:55.947Z,26.93
2019-02-20T10:41:59.964Z,25.10
2019-02-20T10:43:03.977Z,21.23
2019-02-20T10:44:08.554Z,26.27
2019-02-20T10:45:12.589Z,28.92
2019-02-20T10:46:17.246Z,29.07
2019-02-20T10:47:21.119Z,27.22
2019-02-20T10:48:25.452Z,23.92
2019-02-20T10:49:29.387Z,27.48
2019-02-20T10:50:33.866Z,30.50
2019-02-20T10:51:37.879Z,22.62
2019-02-20T10:52:41.808Z,23.02
2019-02-20T10:53:45.735Z,23.75
2019-02-20T10:54:57.393Z,33.13
2019-02-20T10:55:55.314Z,25.02
2019-02-20T10:56:59.202Z,31.07
2019-02-20T10:58:03.133Z,29.15
2019-02-20T10:59:07.645Z,30.90
2019-02-20T11:00:26.699Z,27.90
2019-02-20T11:01:30.714Z,27.25
2019-02-20T11:02:35.091Z,28.90
2019-02-20T11:03:39.189Z,32.85
2019-02-20T11:04:43.201Z,35.23
2019-02-20T11:05:47.458Z,29.25
2019-02-20T11:06:53.331Z,26.82
2019-02-20T11:07:57.403Z,28.25
2019-02-20T11:09:01.690Z,26.65
2019-02-20T11:10:07.520Z,24.57
2019-02-20T11:11:11.517Z,29.55
2019-02-20T11:12:16.005Z,24.82
2019-02-20T11:13:19.940Z,26.62
2019-02-20T11:14:23.822Z,28.38
2019-02-20T11:15:27.751Z,19.95
2019-02-20T11:16:33.091Z,22.20
2019-02-20T11:17:37.566Z,21.48
2019-02-20T11:18:41.419Z,25.65
2019-02-20T11:19:45.425Z,28.62
2019-02-20T11:20:49.432Z,31.97
2019-02-20T11:21:53.607Z,38.65
2019-02-20T11:22:57.556Z,42.27
2019-02-20T11:24:01.820Z,29.18
2019-02-20T11:25:06.767Z,25.23
2019-02-20T11:26:17.875Z,23.98
2019-02-20T11:27:16.445Z,25.97
2019-02-20T11:28:26.780Z,21.80
2019-02-20T11:29:26.311Z,21.33
2019-02-20T11:30:30.958Z,24.75
2019-02-20T11:31:35.288Z,25.43
2019-02-20T11:32:39.595Z,23.75
2019-02-20T11:33:43.614Z,19.27
2019-02-20T11:34:48.022Z,19.85
2019-02-20T11:35:52.325Z,22.55
2019-02-20T11:36:56.519Z,18.65
2019-02-20T11:38:00.400Z,20.23
2019-02-20T11:39:06.160Z,21.93
2019-02-20T11:40:10.485Z,26.60
2019-02-20T11:41:14.526Z,13.55
2019-02-20T11:42:18.529Z,17.25
2019-02-20T11:43:22.479Z,23.47
2019-02-20T11:44:26.838Z,17.37
2019-02-20T11:45:31.172Z,24.98
2019-02-20T11:46:35.214Z,17.37
2019-02-20T11:47:39.426Z,20.20
2019-02-20T11:48:44.360Z,15.88
2019-02-20T11:49:48.522Z,20.55
2019-02-20T11:50:52.568Z,15.78
2019-02-20T11:51:56.728Z,15.90
2019-02-20T11:53:01.188Z,13.95
2019-02-20T11:54:05.250Z,15.43
2019-02-20T11:55:09.524Z,20.10
2019-02-20T11:56:13.966Z,18.25
2019-02-20T11:57:18.168Z,17.57
2019-02-20T11:58:22.293Z,15.45
2019-02-20T11:59:26.714Z,13.98
2019-02-20T12:00:31.046Z,17.20
2019-02-20T12:01:35.472Z,16.25
2019-02-20T12:02:39.606Z,14.28
2019-02-20T12:03:43.830Z,16.73
2019-02-20T12:04:47.805Z,13.43
2019-02-20T12:05:51.838Z,13.98
2019-02-20T12:06:56.146Z,13.10
2019-02-20T12:08:00.435Z,11.80
2019-02-20T12:09:05.702Z,14.85
2019-02-20T12:10:09.951Z,14.98
2019-02-20T12:11:14.230Z,13.30
2019-02-20T12:12:18.583Z,12.03
2019-02-20T12:13:22.610Z,15.48
2019-02-20T12:14:26.641Z,13.85
2019-02-20T12:15:31.069Z,12.13
2019-02-20T12:16:35.614Z,10.72
2019-02-20T12:17:41.051Z,17.45
2019-02-20T12:18:48.056Z,10.98
2019-02-20T12:19:52.058Z,13.55
2019-02-20T12:20:56.087Z,13.48
2019-02-20T12:22:00.393Z,11.40
2019-02-20T12:23:04.399Z,13.15
2019-02-20T12:24:08.735Z,11.70
2019-02-20T12:25:16.525Z,9.65
2019-02-20T12:26:20.671Z,11.15
2019-02-20T12:27:24.942Z,11.22
2019-02-20T12:28:29.166Z,11.35
2019-02-20T12:29:33.375Z,15.75
2019-02-20T12:30:38.141Z,11.03
2019-02-20T12:31:42.205Z,13.88
2019-02-20T12:32:46.553Z,13.13
2019-02-20T12:33:52.246Z,11.80
2019-02-20T12:34:56.347Z,8.65
2019-02-20T12:36:00.463Z,10.82
2019-02-20T12:37:04.789Z,8.30
2019-02-20T12:38:09.146Z,10.90
2019-02-20T12:39:13.098Z,7.97
2019-02-20T12:40:17.112Z,8.78
2019-02-20T12:41:21.458Z,10.23
2019-02-20T12:42:25.869Z,10.25
2019-02-20T12:43:29.875Z,9.55
2019-02-20T12:44:33.915Z,8.15
2019-02-20T12:45:37.903Z,8.43
2019-02-20T12:46:42.283Z,8.68
2019-02-20T12:47:46.669Z,8.73
2019-02-20T12:48:51.100Z,8.93
2019-02-20T12:49:55.103Z,10.13
2019-02-20T12:50:59.421Z,7.42
2019-02-20T12:52:03.926Z,12.58
2019-02-20T12:53:08.208Z,10.08
2019-02-20T12:54:12.222Z,9.85
2019-02-20T12:55:16.540Z,10.63
2019-02-20T12:56:20.495Z,7.22
2019-02-20T12:57:24.925Z,6.67
2019-02-20T12:58:29.116Z,7.67
2019-02-20T12:59:33.166Z,7.35
2019-02-20T13:00:37.166Z,9.10
2019-02-20T13:01:41.179Z,29.15
2019-02-20T13:02:45.212Z,9.10
2019-02-20T13:03:49.283Z,7.33
2019-02-20T13:04:53.438Z,6.92
2019-02-20T13:05:57.533Z,9.83
2019-02-20T13:07:01.496Z,7.87
2019-02-20T13:08:05.530Z,11.40
2019-02-20T13:09:12.707Z,7.65
2019-02-20T13:10:17.137Z,9.63
2019-02-20T13:11:21.479Z,7.08
2019-02-20T13:12:25.516Z,10.05
2019-02-20T13:13:29.576Z,9.03
2019-02-20T13:14:33.673Z,9.45
2019-02-20T13:15:38.031Z,10.80
2019-02-20T13:16:42.162Z,9.25
2019-02-20T13:17:46.221Z,10.28
2019-02-20T13:18:50.185Z,8.93
2019-02-20T13:19:56.737Z,8.05
2019-02-20T13:21:00.631Z,13.15
2019-02-20T13:22:04.664Z,9.10
2019-02-20T13:23:08.831Z,11.28
2019-02-20T13:24:12.907Z,12.73
2019-02-20T13:25:27.304Z,9.25
2019-02-20T13:26:31.341Z,10.20
2019-02-20T13:27:35.363Z,9.20
2019-02-20T13:28:39.722Z,9.20
2019-02-20T13:29:44.279Z,8.80
2019-02-20T13:30:48.430Z,10.85
2019-02-20T13:31:52.750Z,7.75
2019-02-20T13:32:57.077Z,13.28
2019-02-20T13:34:01.143Z,9.48
2019-02-20T13:35:05.857Z,10.20
2019-02-20T13:36:10.070Z,9.88
2019-02-20T13:37:14.129Z,9.70
2019-02-20T13:38:18.142Z,11.25
2019-02-20T13:39:22.437Z,12.47
2019-02-20T13:40:26.408Z,13.58
2019-02-20T13:41:30.998Z,10.80
2019-02-20T13:42:35.070Z,8.70
2019-02-20T13:43:39.638Z,9.35
2019-02-20T13:44:43.676Z,11.08
2019-02-20T13:45:48.253Z,7.62
2019-02-20T13:46:53.837Z,9.98
2019-02-20T13:47:58.028Z,9.43
2019-02-20T13:49:02.153Z,8.75
2019-02-20T13:50:07.166Z,8.35
2019-02-20T13:51:11.117Z,7.97
2019-02-20T13:52:15.039Z,7.95
2019-02-20T13:53:19.220Z,19.87